Time;durP1;ratioP1;P1;durP2;ratioP2;P2;SDS_P1;SDS_P2;PMS_P1;PMS_P2;Temp;Humidity;BMP_temperature;BMP_pressure;BME280_temperature;BME280_humidity;BME280_pressure;Samples;Min_cycle;Max_cycle;Signal;HPM_P1;HPM_P2
2022/11/19 00:00:18;;;;;;;;;;;;;;;20.91;29.55;96628.19;5052166;28;1472;-73
2022/11/19 00:02:43;;;;;;;;;;;;;;;20.70;29.75;96652.53;5076975;28;1391;-73
2022/11/19 00:05:09;;;;;;;;;;;;;;;20.67;29.54;96647.81;5079272;28;1969;-73
2022/11/19 00:07:34;;;;;;;;;;;;;;;20.67;29.71;96647.81;5079163;28;914;-73
2022/11/19 00:10:00;;;;;;;;;;;;;;;20.74;29.48;96646.75;5079131;28;973;-73
2022/11/19 00:15:09;;;;;;;;;;;;;;;20.79;29.36;96666.69;5077570;28;1537;-73
2022/11/19 00:17:35;;;;;;;;;;;;;;;20.58;29.82;96669.66;5043450;28;960;-73
2022/11/19 00:20:00;;;;;;;;;;;;;;;20.64;29.71;96676.25;5061256;28;1185;-73
2022/11/19 00:22:26;;;;;;;;;;;;;;;20.66;29.76;96670.91;5061248;28;1502;-73
2022/11/19 00:24:51;;;;;;;;;;;;;;;20.75;29.63;96662.44;5078978;28;1906;-73
2022/11/19 00:27:17;;;;;;;;;;;;;;;20.88;29.28;96682.06;5079008;28;848;-73
2022/11/19 00:29:42;;;;;;;;;;;;;;;20.58;29.57;96684.59;5044563;28;953;-73
2022/11/19 00:32:07;;;;;;;;;;;;;;;20.80;29.30;96695.72;5058218;28;1403;-73
2022/11/19 00:34:33;;;;;;;;;;;;;;;20.63;29.66;96686.00;5078627;28;900;-73
2022/11/19 00:36:58;;;;;;;;;;;;;;;20.73;29.69;96696.84;5061298;28;943;-73
2022/11/19 00:39:24;;;;;;;;;;;;;;;20.79;29.70;96697.78;5078813;28;951;-73
2022/11/19 00:41:49;;;;;;;;;;;;;;;20.91;29.17;96700.91;5078509;28;929;-73
2022/11/19 00:44:14;;;;;;;;;;;;;;;20.72;29.68;96695.25;5078668;28;903;-73
2022/11/19 00:46:40;;;;;;;;;;;;;;;20.78;29.54;96695.44;5058905;28;1973;-73
2022/11/19 00:49:05;;;;;;;;;;;;;;;20.51;29.75;96707.47;5058348;28;958;-73
2022/11/19 00:51:31;;;;;;;;;;;;;;;20.98;29.23;96707.03;5058542;28;890;-73
2022/11/19 00:53:56;;;;;;;;;;;;;;;20.66;29.96;96707.66;5058128;28;905;-73
2022/11/19 00:56:22;;;;;;;;;;;;;;;20.85;29.70;96702.81;5040999;28;1095;-73
2022/11/19 00:58:48;;;;;;;;;;;;;;;20.72;29.54;96698.06;5040635;28;902;-73
2022/11/19 01:01:13;;;;;;;;;;;;;;;20.53;29.76;96713.47;5037643;28;1488;-73
2022/11/19 01:03:39;;;;;;;;;;;;;;;20.37;30.02;96708.84;5040363;28;1159;-73
2022/11/19 01:06:04;;;;;;;;;;;;;;;21.12;29.06;96711.25;5058071;28;1969;-73
2022/11/19 01:08:30;;;;;;;;;;;;;;;21.02;29.02;96709.69;5040449;28;863;-73
2022/11/19 01:10:55;;;;;;;;;;;;;;;21.22;29.06;96710.00;5057735;28;950;-73
2022/11/19 01:13:33;;;;;;;;;;;;;;;20.81;29.49;96702.94;5055200;28;1023;-73
2022/11/19 01:15:58;;;;;;;;;;;;;;;20.76;29.68;96710.00;5062785;28;1466;-73
2022/11/19 01:18:24;;;;;;;;;;;;;;;20.67;29.70;96704.34;5073461;28;1603;-73
2022/11/19 01:20:50;;;;;;;;;;;;;;;20.66;29.51;96719.75;5058173;28;1378;-72
2022/11/19 01:23:15;;;;;;;;;;;;;;;20.90;29.72;96727.63;5074340;28;1292;-73
2022/11/19 01:25:41;;;;;;;;;;;;;;;20.94;29.26;96731.09;5057612;28;1910;-73
2022/11/19 01:28:06;;;;;;;;;;;;;;;20.88;29.27;96725.28;5074578;28;972;-73
2022/11/19 01:30:32;;;;;;;;;;;;;;;20.75;29.45;96727.44;5074437;28;999;-73
2022/11/19 01:32:57;;;;;;;;;;;;;;;20.73;29.53;96739.25;5072366;28;1598;-73
2022/11/19 01:35:22;;;;;;;;;;;;;;;20.68;29.56;96745.50;5074324;28;1018;-73
2022/11/19 01:37:48;;;;;;;;;;;;;;;20.53;30.06;96744.53;5074537;28;944;-73
2022/11/19 01:40:14;;;;;;;;;;;;;;;20.33;30.22;96744.16;5074015;28;1029;-73
2022/11/19 01:42:48;;;;;;;;;;;;;;;20.95;29.47;96753.22;5074220;28;1096;-73
2022/11/19 01:45:33;;;;;;;;;;;;;;;20.81;29.38;96759.50;5074187;28;1914;-73
2022/11/19 01:48:02;;;;;;;;;;;;;;;20.88;29.38;96750.72;5034120;28;1031;-73
2022/11/19 01:50:28;;;;;;;;;;;;;;;20.86;29.70;96756.03;5036165;28;999;-73
2022/11/19 01:52:53;;;;;;;;;;;;;;;20.48;30.05;96753.63;5036411;28;923;-73
2022/11/19 01:55:19;;;;;;;;;;;;;;;20.60;29.75;96749.09;5037583;28;1580;-73
2022/11/19 01:57:44;;;;;;;;;;;;;;;20.81;29.27;96754.63;5075862;28;931;-73
2022/11/19 02:00:10;;;;;;;;;;;;;;;20.71;29.40;96750.22;5076275;28;879;-73
2022/11/19 02:02:35;;;;;;;;;;;;;;;21.06;29.02;96755.59;5058539;28;873;-73
2022/11/19 02:05:01;;;;;;;;;;;;;;;21.04;28.79;96756.06;5057838;28;1915;-73
2022/11/19 02:07:28;;;;;;;;;;;;;;;20.49;29.82;96755.22;5057900;28;926;-73
2022/11/19 02:09:54;;;;;;;;;;;;;;;20.70;29.45;96748.66;5046366;28;1479;-73
2022/11/19 02:12:44;;;;;;;;;;;;;;;20.79;29.60;96745.06;5038432;28;840;-73
2022/11/19 02:15:09;;;;;;;;;;;;;;;20.85;29.36;96760.13;5038014;28;1023;-73
2022/11/19 02:17:57;;;;;;;;;;;;;;;20.81;29.36;96759.50;5056061;28;957;-73
2022/11/19 02:20:23;;;;;;;;;;;;;;;20.72;29.49;96756.66;4994771;28;1221973;-73
2022/11/19 02:23:21;;;;;;;;;;;;;;;20.66;29.84;96773.44;5057290;28;925;-73
2022/11/19 02:25:52;;;;;;;;;;;;;;;20.67;29.48;96769.34;4994574;28;1914;-73
2022/11/19 02:28:36;;;;;;;;;;;;;;;20.70;29.67;96785.38;4978618;28;1062;-73
2022/11/19 02:31:04;;;;;;;;;;;;;;;21.00;28.97;96794.22;4994981;28;1009;-73
2022/11/19 02:33:39;;;;;;;;;;;;;;;21.15;28.98;96795.19;4994668;28;1560;-73
2022/11/19 02:36:08;;;;;;;;;;;;;;;20.74;29.46;96805.03;4994859;28;1072;-73
2022/11/19 02:38:38;;;;;;;;;;;;;;;20.69;29.49;96808.47;4978554;28;1023;-73
2022/11/19 02:41:34;;;;;;;;;;;;;;;20.62;29.57;96814.41;4977540;28;1565;-73
2022/11/19 02:46:51;;;;;;;;;;;;;;;20.93;29.16;96828.44;4980722;28;1910;-73
2022/11/19 02:49:17;;;;;;;;;;;;;;;20.93;29.18;96825.63;4978701;28;986;-73
2022/11/19 02:51:43;;;;;;;;;;;;;;;20.76;29.08;96836.44;4978411;28;1032;-73
2022/11/19 02:54:09;;;;;;;;;;;;;;;20.81;29.43;96844.31;4993902;28;1489;-73
2022/11/19 02:56:52;;;;;;;;;;;;;;;20.87;29.15;96853.72;4994734;28;960;-73
2022/11/19 03:04:55;;;;;;;;;;;;;;;21.11;28.97;96848.28;5040762;28;1907;-72
2022/11/19 03:07:21;;;;;;;;;;;;;;;20.90;28.88;96854.84;5055098;28;1022;-72
2022/11/19 03:09:51;;;;;;;;;;;;;;;20.85;29.16;96856.25;5038433;28;923;-73
2022/11/19 03:12:32;;;;;;;;;;;;;;;20.61;29.44;96864.50;5038499;28;986;-73
2022/11/19 03:18:00;;;;;;;;;;;;;;;20.96;28.95;96872.78;5055741;28;939;-73
2022/11/19 03:20:28;;;;;;;;;;;;;;;21.08;29.07;96877.50;5066060;28;1013;-73
2022/11/19 03:22:56;;;;;;;;;;;;;;;20.51;29.76;96886.28;5075658;28;1004;-73
2022/11/19 03:25:25;;;;;;;;;;;;;;;20.59;29.64;96883.97;5075571;28;1956;-73
2022/11/19 03:27:53;;;;;;;;;;;;;;;20.68;29.67;96900.97;5058262;28;884;-73
2022/11/19 03:30:18;;;;;;;;;;;;;;;21.03;29.03;96904.34;5039018;28;1538;-73
2022/11/19 03:32:46;;;;;;;;;;;;;;;21.02;28.99;96910.50;5016883;28;947;-73
2022/11/19 03:35:18;;;;;;;;;;;;;;;21.08;29.01;96914.28;5050071;28;972;-73
2022/11/19 03:37:44;;;;;;;;;;;;;;;20.67;29.64;96919.16;5033477;28;956;-73
2022/11/19 03:40:10;;;;;;;;;;;;;;;20.68;29.54;96917.94;5033392;28;979;-72
2022/11/19 03:42:35;;;;;;;;;;;;;;;20.66;29.48;96933.75;5033224;28;1011;-73
2022/11/19 03:45:02;;;;;;;;;;;;;;;20.68;29.84;96937.72;5032187;28;1903;-73
2022/11/19 03:47:31;;;;;;;;;;;;;;;20.97;29.26;96953.53;5030141;28;961;-73
2022/11/19 03:49:58;;;;;;;;;;;;;;;21.05;29.17;96958.44;5030054;28;958;-73
2022/11/19 03:52:24;;;;;;;;;;;;;;;20.63;29.85;96958.09;5029892;28;936;-73
2022/11/19 03:54:49;;;;;;;;;;;;;;;20.89;29.25;96963.56;5029756;28;969;-73
2022/11/19 03:57:16;;;;;;;;;;;;;;;20.67;29.60;96963.59;5013527;28;1005;-73
2022/11/19 03:59:41;;;;;;;;;;;;;;;20.73;30.01;96962.56;5028240;28;1925;-72
2022/11/19 04:02:07;;;;;;;;;;;;;;;21.01;29.46;96976.78;5032385;28;1590;-73
2022/11/19 04:04:36;;;;;;;;;;;;;;;20.97;29.75;96976.13;5068686;28;921;-73
2022/11/19 04:07:05;;;;;;;;;;;;;;;21.02;29.60;96978.38;5057799;28;1981;-73
2022/11/19 04:09:31;;;;;;;;;;;;;;;21.04;29.57;96971.00;5057571;28;1053;-73
2022/11/19 04:11:56;;;;;;;;;;;;;;;20.61;30.19;96977.53;5057833;28;981;-73
2022/11/19 04:14:22;;;;;;;;;;;;;;;20.76;30.22;96978.56;5074193;28;1368;-73
2022/11/19 04:16:47;;;;;;;;;;;;;;;21.24;29.34;96990.41;5075322;28;895;-73
2022/11/19 04:19:12;;;;;;;;;;;;;;;21.04;29.80;96992.84;5075117;28;1008;-73
2022/11/19 04:21:38;;;;;;;;;;;;;;;20.74;30.26;97003.69;5039469;28;1091;-73
2022/11/19 04:24:04;;;;;;;;;;;;;;;20.86;30.25;97026.69;5075157;28;1147;-73
2022/11/19 04:26:29;;;;;;;;;;;;;;;20.66;30.10;97030.66;5074891;28;1918;-73
2022/11/19 04:28:54;;;;;;;;;;;;;;;20.72;30.24;97040.09;5054710;28;1640;-73
2022/11/19 04:31:20;;;;;;;;;;;;;;;20.80;30.19;97034.97;5043495;28;943;-72
2022/11/19 04:33:45;;;;;;;;;;;;;;;20.89;30.22;97032.22;5076470;28;1595;-73
2022/11/19 04:36:11;;;;;;;;;;;;;;;21.03;30.14;97036.50;5070579;28;1499;-73
2022/11/19 04:38:36;;;;;;;;;;;;;;;20.76;30.54;97046.41;5058475;28;1692;-73
2022/11/19 04:41:02;;;;;;;;;;;;;;;20.77;30.76;97045.16;5076385;28;1497;-72
2022/11/19 04:43:28;;;;;;;;;;;;;;;20.47;31.20;97062.88;5078731;28;902;-73
2022/11/19 04:45:53;;;;;;;;;;;;;;;21.00;30.81;97060.84;5078564;28;1971;-73
2022/11/19 04:48:18;;;;;;;;;;;;;;;21.09;30.39;97071.44;5078613;28;955;-73
2022/11/19 04:50:44;;;;;;;;;;;;;;;21.00;30.74;97060.06;5078636;28;893;-73
2022/11/19 04:53:09;;;;;;;;;;;;;;;20.67;30.94;97065.34;5076454;28;1720;-73
2022/11/19 04:55:35;;;;;;;;;;;;;;;20.78;30.83;97072.19;5078572;28;966;-72
2022/11/19 04:58:00;;;;;;;;;;;;;;;20.63;30.81;97079.63;5078548;28;1042;-72
2022/11/19 05:00:25;;;;;;;;;;;;;;;20.68;30.96;97104.50;5078672;28;903;-72
2022/11/19 05:02:51;;;;;;;;;;;;;;;20.77;31.63;97098.09;5079165;28;941;-73
2022/11/19 05:05:16;;;;;;;;;;;;;;;20.75;31.22;97107.03;5059122;28;1980;-72
2022/11/19 05:07:42;;;;;;;;;;;;;;;20.98;30.72;97102.13;5058509;28;1005;-73
2022/11/19 05:10:07;;;;;;;;;;;;;;;20.56;31.44;97105.31;5058681;28;959;-72
2022/11/19 05:12:33;;;;;;;;;;;;;;;20.66;31.22;97109.78;5022852;28;950;-72
2022/11/19 05:14:58;;;;;;;;;;;;;;;20.53;31.19;97123.22;5058251;28;1029;-72
2022/11/19 05:17:24;;;;;;;;;;;;;;;20.47;31.70;97130.72;5057733;28;1124;-72
2022/11/19 05:19:49;;;;;;;;;;;;;;;20.98;30.79;97147.38;5061438;28;1039;-73
2022/11/19 05:22:14;;;;;;;;;;;;;;;21.09;30.41;97139.31;5078186;28;985;-72
2022/11/19 05:24:40;;;;;;;;;;;;;;;20.82;30.96;97145.56;5078094;28;901;-73
2022/11/19 05:27:05;;;;;;;;;;;;;;;20.84;31.05;97150.78;5078194;28;1980;-73
2022/11/19 05:29:31;;;;;;;;;;;;;;;20.61;31.29;97138.66;5077815;28;808;-74
2022/11/19 05:31:56;;;;;;;;;;;;;;;20.55;31.51;97144.09;5077595;28;989;-73
2022/11/19 05:34:21;;;;;;;;;;;;;;;20.77;31.43;97160.28;5077802;28;954;-73
2022/11/19 05:36:47;;;;;;;;;;;;;;;21.07;31.11;97167.25;5078037;28;911;-73
2022/11/19 05:39:12;;;;;;;;;;;;;;;21.18;30.57;97181.78;5077460;28;983;-73
2022/11/19 05:41:38;;;;;;;;;;;;;;;20.63;31.46;97184.22;5058301;28;897;-73
2022/11/19 05:44:03;;;;;;;;;;;;;;;20.61;31.63;97183.88;5077788;28;975;-73
2022/11/19 05:46:29;;;;;;;;;;;;;;;20.58;31.37;97190.47;5035256;28;1981;-73
2022/11/19 05:48:54;;;;;;;;;;;;;;;20.84;31.35;97198.84;5035331;28;993;-74
2022/11/19 05:51:19;;;;;;;;;;;;;;;21.01;31.14;97214.34;5034959;28;954;-74
2022/11/19 05:53:45;;;;;;;;;;;;;;;21.04;31.16;97225.56;5002294;28;1020;-73
2022/11/19 05:56:10;;;;;;;;;;;;;;;20.67;31.77;97220.81;5035023;28;970;-74
2022/11/19 05:58:36;;;;;;;;;;;;;;;20.71;31.68;97246.94;5035414;28;1041;-74
2022/11/19 06:01:01;;;;;;;;;;;;;;;20.55;32.06;97247.88;5018408;28;1168;-74
2022/11/19 06:03:27;;;;;;;;;;;;;;;20.79;32.08;97254.72;5035307;28;911;-74
2022/11/19 06:05:52;;;;;;;;;;;;;;;20.97;31.74;97258.94;5034849;28;1963;-75
2022/11/19 06:08:18;;;;;;;;;;;;;;;21.31;30.93;97255.31;5034656;28;890;-75
2022/11/19 06:10:43;;;;;;;;;;;;;;;20.78;31.63;97266.50;5034601;28;944;-75
2022/11/19 06:13:09;;;;;;;;;;;;;;;20.95;31.78;97284.06;5035145;28;956;-74
2022/11/19 06:15:34;;;;;;;;;;;;;;;20.84;31.58;97284.44;5034734;28;727;-74
2022/11/19 06:17:59;;;;;;;;;;;;;;;20.71;31.85;97286.50;5064842;28;888;-74
2022/11/19 06:20:25;;;;;;;;;;;;;;;21.07;31.49;97280.41;5077081;28;1324;-74
2022/11/19 06:22:50;;;;;;;;;;;;;;;20.99;31.96;97290.41;5077115;28;758;-75
2022/11/19 06:25:16;;;;;;;;;;;;;;;21.03;31.54;97303.13;5076766;28;1965;-75
2022/11/19 06:27:41;;;;;;;;;;;;;;;20.53;32.17;97295.59;5076706;28;794;-75
2022/11/19 06:30:07;;;;;;;;;;;;;;;20.74;31.74;97300.53;5034143;28;877;-75
2022/11/19 06:32:33;;;;;;;;;;;;;;;20.66;31.54;97313.31;5034197;28;910;-75
2022/11/19 06:34:58;;;;;;;;;;;;;;;20.81;32.11;97325.72;5034708;28;815;-74
2022/11/19 06:37:24;;;;;;;;;;;;;;;21.04;31.27;97332.25;5034368;28;767;-75
2022/11/19 06:39:49;;;;;;;;;;;;;;;21.13;31.23;97349.28;5033993;28;916;-74
2022/11/19 06:44:59;;;;;;;;;;;;;;;20.75;31.55;97350.16;5034092;28;778;-74
2022/11/19 06:47:24;;;;;;;;;;;;;;;20.43;31.84;97350.41;5033923;28;1917;-75
2022/11/19 06:49:49;;;;;;;;;;;;;;;20.77;31.59;97347.66;5033991;28;965;-75
2022/11/19 06:52:15;;;;;;;;;;;;;;;21.05;30.96;97345.13;5033759;28;1039;-75
2022/11/19 06:54:40;;;;;;;;;;;;;;;20.76;31.35;97345.31;5034057;28;999;-75
2022/11/19 06:57:06;;;;;;;;;;;;;;;20.71;31.02;97354.34;5033998;28;1677;-75
2022/11/19 06:59:31;;;;;;;;;;;;;;;20.51;31.31;97346.13;5033971;28;1053;-75
2022/11/19 07:01:57;;;;;;;;;;;;;;;21.00;31.27;97357.03;5070005;28;970;-74
2022/11/19 07:04:22;;;;;;;;;;;;;;;21.00;30.63;97376.81;5076512;28;901;-75
2022/11/19 07:06:47;;;;;;;;;;;;;;;21.23;30.11;97367.91;5076143;28;1922;-75
2022/11/19 07:09:13;;;;;;;;;;;;;;;20.66;31.18;97369.06;5058035;28;930;-75
2022/11/19 07:11:38;;;;;;;;;;;;;;;20.93;30.69;97388.34;5076194;28;878;-75
2022/11/19 07:14:04;;;;;;;;;;;;;;;20.73;30.91;97380.94;5058030;28;1013;-74
2022/11/19 07:16:30;;;;;;;;;;;;;;;20.86;30.87;97394.25;5076119;28;914;-74
2022/11/19 07:18:56;;;;;;;;;;;;;;;21.12;30.40;97384.47;5058659;28;899;-75
2022/11/19 07:21:22;;;;;;;;;;;;;;;20.87;30.77;97378.88;5076265;28;1201;-75
2022/11/19 07:23:47;;;;;;;;;;;;;;;20.86;30.88;97388.59;5058245;28;858;-74
2022/11/19 07:26:13;;;;;;;;;;;;;;;20.68;30.86;97394.84;5058508;28;1906;-75
2022/11/19 07:28:38;;;;;;;;;;;;;;;20.89;30.79;97388.50;5058159;28;1021;-75
2022/11/19 07:31:04;;;;;;;;;;;;;;;20.85;30.88;97395.50;5075965;28;909;-75
2022/11/19 07:33:29;;;;;;;;;;;;;;;20.96;30.61;97398.78;5076120;28;897;-75
2022/11/19 07:35:55;;;;;;;;;;;;;;;21.04;30.53;97397.28;5040293;28;929;-74
2022/11/19 07:38:20;;;;;;;;;;;;;;;20.74;31.15;97405.13;5057644;28;849;-74
2022/11/19 07:40:52;;;;;;;;;;;;;;;20.84;30.90;97406.03;5076032;28;1021;-75
2022/11/19 07:43:18;;;;;;;;;;;;;;;20.64;31.07;97411.94;5057793;28;990;-75
2022/11/19 07:45:43;;;;;;;;;;;;;;;20.71;30.93;97416.56;5075709;28;1976;-75
2022/11/19 07:48:09;;;;;;;;;;;;;;;20.98;30.64;97418.88;5075996;28;932;-75
2022/11/19 07:50:34;;;;;;;;;;;;;;;21.04;30.57;97428.41;5075560;28;1002;-75
2022/11/19 07:52:59;;;;;;;;;;;;;;;20.76;31.02;97425.25;5075683;28;955;-74
2022/11/19 07:55:25;;;;;;;;;;;;;;;21.05;30.33;97435.66;5040315;28;1080;-75
2022/11/19 07:57:52;;;;;;;;;;;;;;;20.74;30.69;97435.44;5075873;28;912;-75
2022/11/19 08:00:17;;;;;;;;;;;;;;;20.87;30.76;97435.44;5075679;28;931;-74
2022/11/19 08:02:43;;;;;;;;;;;;;;;21.02;30.69;97456.34;5075996;28;968;-75
2022/11/19 08:05:08;;;;;;;;;;;;;;;21.02;30.50;97457.13;5078093;28;1976;-74
2022/11/19 08:07:35;;;;;;;;;;;;;;;20.87;30.48;97458.03;5079620;28;900;-75
2022/11/19 08:10:01;;;;;;;;;;;;;;;20.97;30.31;97474.66;5079467;28;1076;-74
2022/11/19 08:12:27;;;;;;;;;;;;;;;20.85;30.45;97478.31;5079240;28;913;-74
2022/11/19 08:14:53;;;;;;;;;;;;;;;21.09;30.23;97481.59;5079139;28;964;-72
2022/11/19 08:20:02;;;;;;;;;;;;;;;20.88;30.44;97482.25;5060851;28;1204;-72
2022/11/19 08:22:28;;;;;;;;;;;;;;;20.94;30.35;97486.13;5079348;28;1167;-72
2022/11/19 08:24:54;;;;;;;;;;;;;;;20.80;30.32;97476.84;5079170;28;937;-72
2022/11/19 08:27:19;;;;;;;;;;;;;;;20.92;30.37;97485.75;5079265;28;1909;-72
2022/11/19 08:29:45;;;;;;;;;;;;;;;21.08;29.87;97480.75;5079248;28;910;-72
2022/11/19 08:32:10;;;;;;;;;;;;;;;20.92;30.14;97482.94;5078905;28;905;-72
2022/11/19 08:34:36;;;;;;;;;;;;;;;20.89;30.20;97495.16;5078727;28;1024;-72
2022/11/19 08:37:01;;;;;;;;;;;;;;;20.89;30.28;97495.16;5043340;28;938;-73
2022/11/19 08:39:26;;;;;;;;;;;;;;;20.93;30.12;97490.16;5061200;28;951;-72
2022/11/19 08:44:36;;;;;;;;;;;;;;;21.20;29.77;97493.34;5079138;28;928;-72
2022/11/19 08:47:01;;;;;;;;;;;;;;;20.86;30.33;97501.72;5078792;28;1914;-72
2022/11/19 08:49:27;;;;;;;;;;;;;;;20.87;30.02;97503.28;5078534;28;885;-72
2022/11/19 08:51:52;;;;;;;;;;;;;;;20.84;30.24;97507.84;5078431;28;956;-72
2022/11/19 08:54:18;;;;;;;;;;;;;;;20.79;30.11;97497.88;5078626;28;911;-72
2022/11/19 08:56:43;;;;;;;;;;;;;;;21.01;29.83;97497.19;5079010;28;943;-72
2022/11/19 08:59:09;;;;;;;;;;;;;;;21.19;29.79;97497.41;5078684;28;935;-72
2022/11/19 09:01:34;;;;;;;;;;;;;;;20.98;29.75;97503.75;5078669;28;951;-72
2022/11/19 09:03:59;;;;;;;;;;;;;;;20.83;30.11;97502.59;5078511;28;896;-72
2022/11/19 09:06:25;;;;;;;;;;;;;;;20.77;30.36;97503.16;5078649;28;1878;-72
2022/11/19 09:08:51;;;;;;;;;;;;;;;20.57;30.64;97505.41;5060772;28;924;-72
2022/11/19 09:11:16;;;;;;;;;;;;;;;21.04;29.81;97507.63;5026487;28;1249;-72
2022/11/19 09:13:42;;;;;;;;;;;;;;;21.02;29.79;97510.09;5078465;28;802;-72
2022/11/19 09:16:08;;;;;;;;;;;;;;;21.12;29.85;97508.94;5077824;28;945;-72
2022/11/19 09:18:37;;;;;;;;;;;;;;;21.25;29.85;97517.44;5060408;28;908;-72
2022/11/19 09:21:03;;;;;;;;;;;;;;;20.88;30.11;97516.19;5060370;28;1214;-72
2022/11/19 09:23:29;;;;;;;;;;;;;;;20.85;30.11;97508.63;5078539;28;968;-73
2022/11/19 09:25:58;;;;;;;;;;;;;;;20.91;30.00;97520.94;5077736;28;1901;-73
2022/11/19 09:28:23;;;;;;;;;;;;;;;20.78;30.20;97524.56;5059954;28;1080;-73
2022/11/19 09:30:59;;;;;;;;;;;;;;;20.61;30.74;97517.41;5060160;28;935;-74
2022/11/19 09:33:25;;;;;;;;;;;;;;;20.53;30.43;97524.53;5077883;28;954;-73
2022/11/19 09:35:51;;;;;;;;;;;;;;;21.33;29.50;97525.25;5060570;28;919;-74
2022/11/19 09:38:16;;;;;;;;;;;;;;;21.37;29.16;97536.47;5043202;28;928;-74
2022/11/19 09:40:45;;;;;;;;;;;;;;;20.75;30.09;97542.41;5077778;28;971;-74
2022/11/19 09:43:29;;;;;;;;;;;;;;;20.58;30.70;97535.28;5059670;28;1227;-74
2022/11/19 09:45:54;;;;;;;;;;;;;;;20.34;30.91;97542.41;5077680;28;1979;-74
2022/11/19 09:48:23;;;;;;;;;;;;;;;20.64;30.17;97539.13;5059743;28;922;-74
2022/11/19 09:50:53;;;;;;;;;;;;;;;20.63;30.12;97540.38;5059584;28;909;-74
2022/11/19 09:53:19;;;;;;;;;;;;;;;21.02;29.92;97541.97;5043038;28;1026;-73
2022/11/19 09:55:45;;;;;;;;;;;;;;;21.18;29.46;97543.91;5043117;28;1122;-73
2022/11/19 09:58:29;;;;;;;;;;;;;;;20.65;30.46;97549.19;5059537;28;1096;-74
2022/11/19 10:00:55;;;;;;;;;;;;;;;20.58;30.43;97537.31;5077189;28;902;-74
2022/11/19 10:03:21;;;;;;;;;;;;;;;20.60;30.63;97535.63;5042449;28;845;-73
2022/11/19 10:05:52;;;;;;;;;;;;;;;20.56;30.30;97546.22;5042952;28;1898;-73
2022/11/19 10:08:34;;;;;;;;;;;;;;;20.89;29.97;97551.72;5077070;28;993;-74
2022/11/19 10:10:59;;;;;;;;;;;;;;;21.12;29.80;97557.03;5059534;28;892;-74
2022/11/19 10:13:41;;;;;;;;;;;;;;;20.89;29.89;97554.56;5077181;28;834;-74
2022/11/19 10:16:09;;;;;;;;;;;;;;;20.67;30.25;97543.06;5054587;28;1934;-74
2022/11/19 10:18:40;;;;;;;;;;;;;;;20.73;30.42;97547.75;5056644;28;847;-74
2022/11/19 10:21:11;;;;;;;;;;;;;;;21.17;29.42;97547.97;5043946;28;1646;-74
2022/11/19 10:23:36;;;;;;;;;;;;;;;21.07;29.83;97549.13;5038943;28;882;-75
2022/11/19 10:26:03;;;;;;;;;;;;;;;20.78;29.87;97552.06;5056624;28;1906;-75
2022/11/19 10:28:29;;;;;;;;;;;;;;;20.63;30.21;97540.38;5056372;28;951;-74
2022/11/19 10:30:55;;;;;;;;;;;;;;;20.62;30.55;97538.78;5038938;28;976;-73
2022/11/19 10:33:23;;;;;;;;;;;;;;;20.67;30.29;97546.69;5056444;28;883;-74
2022/11/19 10:36:00;;;;;;;;;;;;;;;20.97;29.80;97561.56;5034225;28;1487;-73
2022/11/19 10:38:25;;;;;;;;;;;;;;;21.05;29.92;97560.91;5034205;28;1032;-73
2022/11/19 10:41:11;;;;;;;;;;;;;;;20.76;29.88;97554.53;5034313;28;972;-73
2022/11/19 10:43:45;;;;;;;;;;;;;;;21.03;29.71;97559.75;5034007;28;1118;-74
2022/11/19 10:46:11;;;;;;;;;;;;;;;20.79;29.97;97562.91;5034241;28;1898;-74
2022/11/19 10:48:42;;;;;;;;;;;;;;;20.72;29.97;97562.31;5034401;28;984;-74
2022/11/19 10:51:26;;;;;;;;;;;;;;;21.12;29.47;97568.34;5033772;28;962;-74
2022/11/19 10:53:52;;;;;;;;;;;;;;;21.23;29.33;97574.47;5033912;28;958;-74
2022/11/19 10:56:18;;;;;;;;;;;;;;;20.92;29.69;97573.44;5017378;28;982;-74
2022/11/19 10:58:45;;;;;;;;;;;;;;;20.71;30.06;97578.47;5017314;28;1025;-73
2022/11/19 11:01:30;;;;;;;;;;;;;;;20.87;29.98;97574.78;5034195;28;1024;-74
2022/11/19 11:04:17;;;;;;;;;;;;;;;20.51;30.67;97589.16;5034375;28;938;-73
2022/11/19 11:06:48;;;;;;;;;;;;;;;20.99;29.95;97584.53;5017131;28;1967;-74
2022/11/19 11:09:26;;;;;;;;;;;;;;;20.98;29.76;97585.75;5033941;28;997;-74
2022/11/19 11:14:50;;;;;;;;;;;;;;;20.64;30.55;97597.72;5033912;28;908;-74
2022/11/19 11:17:37;;;;;;;;;;;;;;;20.77;30.17;97595.69;5032951;28;1008;-74
2022/11/19 11:20:07;;;;;;;;;;;;;;;20.53;30.65;97581.84;5040593;28;1144;-73
2022/11/19 11:22:32;;;;;;;;;;;;;;;21.20;29.35;97583.09;5034576;28;904;-74
2022/11/19 11:24:58;;;;;;;;;;;;;;;21.05;29.87;97582.72;5058328;28;999;-74
2022/11/19 11:27:26;;;;;;;;;;;;;;;20.94;29.77;97599.25;5057849;28;1969;-73
2022/11/19 11:30:10;;;;;;;;;;;;;;;20.59;30.42;97612.38;5041454;28;989;-74
2022/11/19 11:32:35;;;;;;;;;;;;;;;20.62;30.30;97617.91;5058111;28;1481;-74
2022/11/19 11:35:01;;;;;;;;;;;;;;;20.35;30.87;97623.13;5075873;28;1114;-74
2022/11/19 11:37:26;;;;;;;;;;;;;;;20.98;30.06;97619.69;5057827;28;987;-73
2022/11/19 11:39:53;;;;;;;;;;;;;;;20.98;29.71;97622.53;5079849;28;917;-74
2022/11/19 11:42:19;;;;;;;;;;;;;;;21.06;29.75;97629.56;5062313;28;1094;-74
2022/11/19 11:44:55;;;;;;;;;;;;;;;20.96;29.86;97631.47;5062244;28;979;-74
2022/11/19 11:47:27;;;;;;;;;;;;;;;20.72;30.17;97625.31;5061989;28;1906;-74
2022/11/19 11:49:58;;;;;;;;;;;;;;;20.68;30.48;97616.16;5062161;28;948;-73
2022/11/19 11:52:38;;;;;;;;;;;;;;;20.94;29.87;97627.53;5062028;28;986;-74
2022/11/19 11:55:05;;;;;;;;;;;;;;;21.24;29.46;97607.19;5020678;28;1038;-73
2022/11/19 11:57:34;;;;;;;;;;;;;;;20.87;29.79;97619.22;5020808;28;1073;-74
2022/11/19 12:00:00;;;;;;;;;;;;;;;20.92;29.72;97613.03;5020971;28;1172;-73
2022/11/19 12:02:30;;;;;;;;;;;;;;;20.60;30.46;97611.94;5021009;28;1883;-74
2022/11/19 12:04:57;;;;;;;;;;;;;;;20.58;30.40;97602.34;5021309;28;962;-74
2022/11/19 12:07:29;;;;;;;;;;;;;;;20.59;30.41;97607.53;5020648;28;1914;-73
2022/11/19 12:10:04;;;;;;;;;;;;;;;21.06;29.77;97590.75;5017489;28;960;-74
2022/11/19 12:12:33;;;;;;;;;;;;;;;21.23;29.45;97593.47;5017199;28;926;-74
2022/11/19 12:15:25;;;;;;;;;;;;;;;21.00;29.68;97588.94;5017355;28;899;-75
2022/11/19 12:17:53;;;;;;;;;;;;;;;20.72;30.24;97602.69;4977899;28;1017;-75
2022/11/19 12:20:21;;;;;;;;;;;;;;;20.55;30.50;97595.53;4977964;28;1016;-74
2022/11/19 12:23:09;;;;;;;;;;;;;;;20.49;30.80;97591.66;4977850;28;1081;-75
2022/11/19 12:25:37;;;;;;;;;;;;;;;20.88;30.02;97586.88;4973066;28;1977;-75
2022/11/19 12:28:02;;;;;;;;;;;;;;;21.10;29.77;97593.47;5016815;28;1009;-75
2022/11/19 12:30:34;;;;;;;;;;;;;;;20.79;30.25;97598.88;5000586;28;1020;-75
2022/11/19 12:33:15;;;;;;;;;;;;;;;20.75;30.47;97593.31;5000503;28;901;-75
2022/11/19 12:36:16;;;;;;;;;;;;;;;20.81;30.19;97590.72;5016839;28;1273;-75
2022/11/19 12:39:00;;;;;;;;;;;;;;;20.71;30.35;97591.84;4978025;28;902;-75
2022/11/19 12:41:25;;;;;;;;;;;;;;;20.85;30.31;97601.94;4977460;28;1475;-75
2022/11/19 12:43:53;;;;;;;;;;;;;;;21.07;29.78;97591.53;4977891;28;1004;-75
2022/11/19 12:46:19;;;;;;;;;;;;;;;21.04;29.75;97592.47;4977710;28;1981;-75
2022/11/19 12:48:50;;;;;;;;;;;;;;;20.84;30.11;97597.53;4977870;28;1014;-75
2022/11/19 12:51:34;;;;;;;;;;;;;;;20.64;30.33;97604.16;4976694;28;978;-75
2022/11/19 12:54:05;;;;;;;;;;;;;;;20.58;30.61;97605.94;4981709;28;1035;-75
2022/11/19 12:56:31;;;;;;;;;;;;;;;20.80;30.26;97606.91;4996729;28;945;-75
2022/11/19 12:59:03;;;;;;;;;;;;;;;21.10;29.65;97607.63;4997131;28;1062;-75
2022/11/19 13:01:29;;;;;;;;;;;;;;;21.12;29.59;97605.13;4997114;28;1009;-75
2022/11/19 13:04:04;;;;;;;;;;;;;;;20.79;30.27;97608.16;4981019;28;1062;-75
2022/11/19 13:06:31;;;;;;;;;;;;;;;20.65;30.39;97611.38;4996550;28;1903;-75
2022/11/19 13:08:58;;;;;;;;;;;;;;;20.55;30.63;97606.81;4980733;28;1001;-75
2022/11/19 13:11:35;;;;;;;;;;;;;;;20.59;30.90;97615.22;4980643;28;916;-74
2022/11/19 13:14:11;;;;;;;;;;;;;;;20.98;30.03;97605.56;5061230;28;1014;-75
2022/11/19 13:16:36;;;;;;;;;;;;;;;21.15;29.60;97615.56;5060315;28;982;-75
2022/11/19 13:19:22;;;;;;;;;;;;;;;21.21;29.42;97630.72;5042560;28;934;-75
2022/11/19 13:21:58;;;;;;;;;;;;;;;20.60;30.81;97637.38;5055482;28;968;-74
2022/11/19 13:24:32;;;;;;;;;;;;;;;20.79;30.29;97639.25;5055710;28;1010;-75
2022/11/19 13:27:04;;;;;;;;;;;;;;;20.63;30.79;97658.31;5055443;28;2106;-75
2022/11/19 13:29:32;;;;;;;;;;;;;;;21.12;29.96;97670.19;5055619;28;1239;-74
2022/11/19 13:32:00;;;;;;;;;;;;;;;21.08;30.14;97675.16;5055437;28;1046;-75